createdAt,value
2023-02-09T00:01:26.108Z,13.65
2023-02-09T00:03:53.589Z,12.55
2023-02-09T00:06:22.694Z,14.05
2023-02-09T00:08:50.195Z,14.40
2023-02-09T00:11:47.881Z,14.65
2023-02-09T00:14:16.472Z,15.07
2023-02-09T00:16:43.916Z,15.45
2023-02-09T00:19:11.904Z,14.75
2023-02-09T00:21:39.344Z,15.40
2023-02-09T00:24:07.011Z,15.80
2023-02-09T00:26:34.449Z,15.73
2023-02-09T00:29:01.577Z,15.90
2023-02-09T00:31:28.675Z,17.02
2023-02-09T00:33:55.731Z,16.45
2023-02-09T00:36:22.791Z,16.05
2023-02-09T00:38:50.097Z,17.90
2023-02-09T00:41:17.419Z,17.88
2023-02-09T00:43:44.452Z,17.63
2023-02-09T00:46:11.556Z,17.95
2023-02-09T00:48:38.674Z,19.75
2023-02-09T00:51:05.784Z,21.05
2023-02-09T00:53:32.801Z,19.83
2023-02-09T00:55:59.948Z,19.38
2023-02-09T00:58:27.020Z,19.48
2023-02-09T01:00:54.138Z,18.08
2023-02-09T01:03:21.348Z,16.85
2023-02-09T01:05:48.385Z,16.75
2023-02-09T01:08:15.434Z,15.98
2023-02-09T01:10:42.479Z,15.98
2023-02-09T01:13:09.536Z,16.58
2023-02-09T01:15:39.328Z,17.55
2023-02-09T01:18:07.538Z,14.65
2023-02-09T01:20:34.904Z,16.02
2023-02-09T01:23:01.976Z,15.73
2023-02-09T01:25:28.988Z,15.88
2023-02-09T01:27:56.021Z,15.05
2023-02-09T01:30:23.079Z,17.15
2023-02-09T01:32:50.210Z,15.77
2023-02-09T01:35:17.854Z,15.95
2023-02-09T01:37:44.866Z,16.05
2023-02-09T01:40:12.179Z,15.93
2023-02-09T01:42:39.521Z,16.20
2023-02-09T01:45:09.316Z,16.23
2023-02-09T01:47:42.432Z,16.25
2023-02-09T01:50:09.618Z,17.23
2023-02-09T01:52:36.817Z,16.70
2023-02-09T01:55:06.984Z,16.83
2023-02-09T01:57:39.230Z,17.73
2023-02-09T02:00:08.557Z,17.20
2023-02-09T02:02:35.732Z,17.15
2023-02-09T02:05:03.238Z,17.67
2023-02-09T02:07:33.560Z,16.92
2023-02-09T02:10:00.750Z,17.40
2023-02-09T02:12:27.819Z,15.45
2023-02-09T02:14:54.848Z,17.05
2023-02-09T02:17:33.833Z,16.38
2023-02-09T02:20:10.093Z,15.77
2023-02-09T02:22:49.281Z,16.48
2023-02-09T02:25:28.323Z,15.05
2023-02-09T02:28:18.364Z,15.77
2023-02-09T02:30:51.224Z,15.27
2023-02-09T02:33:26.632Z,16.85
2023-02-09T02:36:02.314Z,16.45
2023-02-09T02:38:35.472Z,15.52
2023-02-09T02:41:05.603Z,15.80
2023-02-09T02:43:41.350Z,17.40
2023-02-09T02:46:13.595Z,15.25
2023-02-09T02:48:43.056Z,15.38
2023-02-09T02:51:10.461Z,14.75
2023-02-09T02:53:38.287Z,15.73
2023-02-09T02:56:11.090Z,15.50
2023-02-09T02:58:39.761Z,17.08
2023-02-09T03:01:09.144Z,15.45
2023-02-09T03:03:37.468Z,16.65
2023-02-09T03:06:05.851Z,15.15
2023-02-09T03:08:46.246Z,15.40
2023-02-09T03:11:13.330Z,16.20
2023-02-09T03:13:43.371Z,16.85
2023-02-09T03:16:19.135Z,15.93
2023-02-09T03:19:01.448Z,19.50
2023-02-09T03:21:34.295Z,20.63
2023-02-09T03:24:04.037Z,20.35
2023-02-09T03:26:39.669Z,22.52
2023-02-09T03:29:07.328Z,21.77
2023-02-09T03:31:34.407Z,20.60
2023-02-09T03:34:01.775Z,21.48
2023-02-09T03:36:32.782Z,21.10
2023-02-09T03:39:00.039Z,20.42
2023-02-09T03:41:27.133Z,19.55
2023-02-09T03:44:12.962Z,19.92
2023-02-09T03:46:40.108Z,19.35
2023-02-09T03:49:07.144Z,22.33
2023-02-09T03:51:34.177Z,20.73
2023-02-09T03:54:01.178Z,21.33
2023-02-09T03:56:28.225Z,21.17
2023-02-09T03:58:55.291Z,22.33
2023-02-09T04:01:22.296Z,21.40
2023-02-09T04:03:49.408Z,24.25
2023-02-09T04:06:16.432Z,23.40
2023-02-09T04:08:43.439Z,23.02
2023-02-09T04:11:10.546Z,24.23
2023-02-09T04:13:37.595Z,25.25
2023-02-09T04:16:04.784Z,23.63
2023-02-09T04:18:31.864Z,22.05
2023-02-09T04:20:59.973Z,22.20
2023-02-09T04:23:27.028Z,23.52
2023-02-09T04:25:54.102Z,23.00
2023-02-09T04:28:21.199Z,23.73
2023-02-09T04:30:52.766Z,25.58
2023-02-09T04:33:19.922Z,25.73
2023-02-09T04:35:48.802Z,25.27
2023-02-09T04:38:16.827Z,25.35
2023-02-09T04:40:44.226Z,25.17
2023-02-09T04:43:11.439Z,26.33
2023-02-09T04:45:39.219Z,25.25
2023-02-09T04:48:06.707Z,25.95
2023-02-09T04:50:33.949Z,24.70
2023-02-09T04:53:00.986Z,24.42
2023-02-09T04:55:28.142Z,23.85
2023-02-09T04:58:15.209Z,26.73
2023-02-09T05:00:43.648Z,26.20
2023-02-09T05:03:10.885Z,26.70
2023-02-09T05:05:40.622Z,25.65
2023-02-09T05:08:08.094Z,25.83
2023-02-09T05:10:35.687Z,24.45
2023-02-09T05:13:02.779Z,28.50
2023-02-09T05:15:29.824Z,26.75
2023-02-09T05:17:56.840Z,27.73
2023-02-09T05:20:23.902Z,25.85
2023-02-09T05:22:50.906Z,25.33
2023-02-09T05:25:17.924Z,25.67
2023-02-09T05:27:44.927Z,25.65
2023-02-09T05:30:12.302Z,27.95
2023-02-09T05:32:39.294Z,25.98
2023-02-09T05:35:08.320Z,25.65
2023-02-09T05:37:35.634Z,26.33
2023-02-09T05:40:02.743Z,27.42
2023-02-09T05:42:29.768Z,26.58
2023-02-09T05:44:56.787Z,27.52
2023-02-09T05:47:25.086Z,25.52
2023-02-09T05:49:52.701Z,26.98
2023-02-09T05:52:20.585Z,27.65
2023-02-09T05:54:48.642Z,26.58
2023-02-09T05:57:16.368Z,27.00
2023-02-09T05:59:43.479Z,28.05
2023-02-09T06:02:10.929Z,25.45
2023-02-09T06:04:37.965Z,27.92
2023-02-09T06:07:05.161Z,29.17
2023-02-09T06:09:32.163Z,26.35
2023-02-09T06:11:59.212Z,26.60
2023-02-09T06:14:26.314Z,28.13
2023-02-09T06:16:53.353Z,28.65
2023-02-09T06:19:21.730Z,29.15
2023-02-09T06:21:48.861Z,27.92
2023-02-09T06:24:17.024Z,27.63
2023-02-09T06:26:44.066Z,28.05
2023-02-09T06:29:11.094Z,29.38
2023-02-09T06:31:38.385Z,28.13
2023-02-09T06:34:05.797Z,29.75
2023-02-09T06:36:32.917Z,27.65
2023-02-09T06:39:00.123Z,27.13
2023-02-09T06:41:27.216Z,24.85
2023-02-09T06:43:54.269Z,27.48
2023-02-09T06:46:21.502Z,24.75
2023-02-09T06:48:48.629Z,23.83
2023-02-09T06:51:17.018Z,26.30
2023-02-09T06:53:44.473Z,24.63
2023-02-09T06:56:12.103Z,27.73
2023-02-09T06:58:41.525Z,24.88
2023-02-09T07:01:12.635Z,24.05
2023-02-09T07:03:39.911Z,23.60
2023-02-09T07:06:08.092Z,22.40
2023-02-09T07:08:35.805Z,22.77
2023-02-09T07:11:07.135Z,21.60
2023-02-09T07:13:34.590Z,21.13
2023-02-09T07:16:02.459Z,22.75
2023-02-09T07:18:29.900Z,23.13
2023-02-09T07:21:01.350Z,21.73
2023-02-09T07:23:28.758Z,23.35
2023-02-09T07:25:55.881Z,21.40
2023-02-09T07:28:23.495Z,24.20
2023-02-09T07:30:52.107Z,21.90
2023-02-09T07:33:19.979Z,22.45
2023-02-09T07:35:47.723Z,22.05
2023-02-09T07:38:15.195Z,21.52
2023-02-09T07:40:46.364Z,20.80
2023-02-09T07:43:14.238Z,22.13
2023-02-09T07:45:41.853Z,19.83
2023-02-09T07:48:10.834Z,20.85
2023-02-09T07:50:38.227Z,18.95
2023-02-09T07:53:05.270Z,18.42
2023-02-09T07:55:32.352Z,18.33
2023-02-09T07:57:59.417Z,16.35
2023-02-09T08:00:26.510Z,17.27
2023-02-09T08:02:53.639Z,15.18
2023-02-09T08:05:27.474Z,17.20
2023-02-09T08:07:56.001Z,15.60
2023-02-09T08:10:23.274Z,15.50
2023-02-09T08:12:59.689Z,16.02
2023-02-09T08:15:28.762Z,16.50
2023-02-09T08:17:57.252Z,16.85
2023-02-09T08:20:26.276Z,15.05
2023-02-09T08:22:55.488Z,14.57
2023-02-09T08:25:24.406Z,15.65
2023-02-09T08:27:52.145Z,15.75
2023-02-09T08:30:19.789Z,13.95
2023-02-09T08:32:46.857Z,15.23
2023-02-09T08:35:14.201Z,15.30
2023-02-09T08:37:41.292Z,17.25
2023-02-09T08:40:08.504Z,15.93
2023-02-09T08:42:35.568Z,16.13
2023-02-09T08:45:02.666Z,16.42
2023-02-09T08:47:29.717Z,14.70
2023-02-09T08:49:58.014Z,16.25
2023-02-09T08:52:25.269Z,14.45
2023-02-09T08:54:52.523Z,13.48
2023-02-09T08:57:19.589Z,15.75
2023-02-09T08:59:46.759Z,13.93
2023-02-09T09:02:13.896Z,15.18
2023-02-09T09:04:40.966Z,15.00
2023-02-09T09:07:08.023Z,14.52
2023-02-09T09:09:35.057Z,15.57
2023-02-09T09:12:02.185Z,14.90
2023-02-09T09:14:29.354Z,12.57
2023-02-09T09:16:58.227Z,13.52
2023-02-09T09:19:25.869Z,15.90
2023-02-09T09:21:53.185Z,14.43
2023-02-09T09:24:21.082Z,14.40
2023-02-09T09:26:48.119Z,14.32
2023-02-09T09:29:15.162Z,13.27
2023-02-09T09:31:42.254Z,13.02
2023-02-09T09:34:09.329Z,12.55
2023-02-09T09:36:36.460Z,13.48
2023-02-09T09:39:03.700Z,13.93
2023-02-09T09:41:32.802Z,13.88
2023-02-09T09:44:00.975Z,13.80
2023-02-09T09:46:34.699Z,12.60
2023-02-09T09:51:37.811Z,13.93
2023-02-09T09:54:06.718Z,13.27
2023-02-09T09:56:34.060Z,12.13
2023-02-09T09:59:01.850Z,13.20
2023-02-09T10:01:31.774Z,11.50
2023-02-09T10:04:03.506Z,13.13
2023-02-09T10:06:33.779Z,11.35
2023-02-09T10:09:10.068Z,10.65
2023-02-09T10:11:39.691Z,11.05
2023-02-09T10:14:06.717Z,11.90
2023-02-09T10:16:35.010Z,11.98
2023-02-09T10:19:03.354Z,11.02
2023-02-09T10:21:32.285Z,10.82
2023-02-09T10:24:02.337Z,11.65
2023-02-09T10:26:31.686Z,11.63
2023-02-09T10:29:00.209Z,11.13
2023-02-09T10:31:33.508Z,10.88
2023-02-09T10:34:09.511Z,12.68
2023-02-09T10:36:37.522Z,11.48
2023-02-09T10:39:06.732Z,11.23
2023-02-09T10:41:35.039Z,10.98
2023-02-09T10:44:06.274Z,11.93
2023-02-09T10:46:33.784Z,11.35
2023-02-09T10:49:00.852Z,10.93
2023-02-09T10:51:33.531Z,11.43
2023-02-09T10:54:03.144Z,10.68
2023-02-09T10:56:36.076Z,10.82
2023-02-09T10:59:04.921Z,11.20
2023-02-09T11:01:33.458Z,11.55
2023-02-09T11:04:26.939Z,10.80
2023-02-09T11:07:01.836Z,11.98
2023-02-09T11:09:31.438Z,10.68
2023-02-09T11:11:58.483Z,9.93
2023-02-09T11:14:26.071Z,10.52
2023-02-09T11:16:55.895Z,9.95
2023-02-09T11:19:27.882Z,10.68
2023-02-09T11:22:07.463Z,10.95
2023-02-09T11:24:53.285Z,10.88
2023-02-09T11:27:21.133Z,10.00
2023-02-09T11:30:07.425Z,9.65
2023-02-09T11:32:54.767Z,9.35
2023-02-09T11:35:24.718Z,10.27
2023-02-09T11:37:55.812Z,10.38
2023-02-09T11:40:22.844Z,9.60
2023-02-09T11:42:53.375Z,9.38
2023-02-09T11:45:23.938Z,9.77
2023-02-09T11:48:03.446Z,9.52
2023-02-09T11:50:49.456Z,10.38
2023-02-09T11:53:21.858Z,9.73
2023-02-09T11:56:03.430Z,10.27
2023-02-09T11:58:53.451Z,10.20
2023-02-09T12:01:26.622Z,10.77
2023-02-09T12:04:10.663Z,10.45
2023-02-09T12:06:40.498Z,11.07
2023-02-09T12:09:12.558Z,10.85
2023-02-09T12:11:45.525Z,10.27
2023-02-09T12:14:23.167Z,10.48
2023-02-09T12:16:54.282Z,11.10
2023-02-09T12:19:41.561Z,11.45
2023-02-09T12:22:43.488Z,12.75
2023-02-09T12:25:14.013Z,10.93
2023-02-09T12:27:42.170Z,12.52
2023-02-09T12:30:27.740Z,13.07
2023-02-09T12:33:11.276Z,12.57
2023-02-09T12:35:39.671Z,8.77
2023-02-09T12:38:08.364Z,12.45
2023-02-09T12:40:36.369Z,12.77
2023-02-09T12:43:09.968Z,13.10
2023-02-09T12:45:38.920Z,11.95
2023-02-09T12:48:08.753Z,12.75
2023-02-09T12:50:46.013Z,11.48
2023-02-09T12:53:22.512Z,12.38
2023-02-09T12:56:10.541Z,12.45
2023-02-09T12:58:57.859Z,11.82
2023-02-09T13:01:44.814Z,12.38
2023-02-09T13:04:13.025Z,12.50
2023-02-09T13:06:44.762Z,13.73
2023-02-09T13:09:16.801Z,12.60
2023-02-09T13:11:49.672Z,12.15
2023-02-09T13:14:17.375Z,13.30
2023-02-09T13:17:03.003Z,12.82
2023-02-09T13:19:48.919Z,13.25
2023-02-09T13:22:25.881Z,12.35
2023-02-09T13:24:55.664Z,12.15
2023-02-09T13:27:24.326Z,12.90
2023-02-09T13:29:53.355Z,11.98
2023-02-09T13:32:39.299Z,11.02
2023-02-09T13:35:28.009Z,11.13
2023-02-09T13:37:56.150Z,11.10
2023-02-09T13:40:28.516Z,11.35
2023-02-09T13:43:01.101Z,12.00
2023-02-09T13:45:28.375Z,11.07
2023-02-09T13:47:56.106Z,12.10
2023-02-09T13:50:24.757Z,11.25
2023-02-09T13:52:52.284Z,10.70
2023-02-09T13:55:19.439Z,10.98
2023-02-09T13:58:00.460Z,11.15
2023-02-09T14:00:29.409Z,12.15
2023-02-09T14:03:00.840Z,11.55
2023-02-09T14:05:39.990Z,11.20
2023-02-09T14:08:07.735Z,11.02
2023-02-09T14:10:35.630Z,11.75
2023-02-09T14:13:07.640Z,11.57
2023-02-09T14:15:56.274Z,11.18
2023-02-09T14:18:43.114Z,11.43
2023-02-09T14:21:13.432Z,11.52
2023-02-09T14:23:41.110Z,11.80
2023-02-09T14:26:18.238Z,11.95
2023-02-09T14:28:49.177Z,11.63
2023-02-09T14:31:19.257Z,15.85
2023-02-09T14:33:49.963Z,12.68
2023-02-09T14:36:21.847Z,12.60
2023-02-09T14:38:50.375Z,11.93
2023-02-09T14:41:34.370Z,11.48
2023-02-09T14:44:18.251Z,16.10
2023-02-09T14:46:48.390Z,12.50
2023-02-09T14:49:15.868Z,12.85
2023-02-09T14:51:43.361Z,12.60
2023-02-09T14:54:18.435Z,14.02
2023-02-09T14:56:46.043Z,13.32
2023-02-09T14:59:16.549Z,12.93
2023-02-09T15:01:43.701Z,13.07
2023-02-09T15:04:10.843Z,12.70
2023-02-09T15:06:38.236Z,13.98
2023-02-09T15:09:06.065Z,13.82
2023-02-09T15:11:51.984Z,13.27
2023-02-09T15:14:24.233Z,15.32
2023-02-09T15:16:51.583Z,14.25
2023-02-09T15:19:21.056Z,14.00
2023-02-09T15:22:01.873Z,12.85
2023-02-09T15:24:32.504Z,14.32
2023-02-09T15:26:59.554Z,13.88
2023-02-09T15:29:26.591Z,15.90
2023-02-09T15:31:55.172Z,14.85
2023-02-09T15:34:22.192Z,14.75
2023-02-09T15:36:49.331Z,14.65
2023-02-09T15:39:20.248Z,15.63
2023-02-09T15:42:06.014Z,15.63
2023-02-09T15:44:51.855Z,15.20
2023-02-09T15:47:37.730Z,15.73
2023-02-09T15:50:04.873Z,15.23
2023-02-09T15:52:31.949Z,15.45
2023-02-09T15:54:58.999Z,15.30
2023-02-09T15:57:26.163Z,13.85
2023-02-09T15:59:53.312Z,15.77
2023-02-09T16:02:20.433Z,16.33
2023-02-09T16:04:48.953Z,16.05
2023-02-09T16:07:20.888Z,17.05
2023-02-09T16:09:47.984Z,16.42
2023-02-09T16:12:15.068Z,17.95
2023-02-09T16:14:42.107Z,15.75
2023-02-09T16:17:09.135Z,15.80
2023-02-09T16:19:36.201Z,17.13
2023-02-09T16:22:05.297Z,16.08
2023-02-09T16:24:34.928Z,18.70
2023-02-09T16:27:03.155Z,16.67
2023-02-09T16:29:30.210Z,16.83
2023-02-09T16:31:57.269Z,18.02
2023-02-09T16:34:24.301Z,18.08
2023-02-09T16:36:51.383Z,17.65
2023-02-09T16:39:19.584Z,17.63
2023-02-09T16:41:47.295Z,18.55
2023-02-09T16:44:21.773Z,16.80
2023-02-09T16:46:50.542Z,17.63
2023-02-09T16:49:27.240Z,17.33
2023-02-09T16:51:56.182Z,19.13
2023-02-09T16:54:23.281Z,18.23
2023-02-09T16:56:54.657Z,18.98
2023-02-09T16:59:21.846Z,19.23
2023-02-09T17:01:49.348Z,18.33
2023-02-09T17:04:16.437Z,20.10
2023-02-09T17:06:44.887Z,19.63
2023-02-09T17:09:15.291Z,18.58
2023-02-09T17:11:42.495Z,20.27
2023-02-09T17:14:09.782Z,19.40
2023-02-09T17:16:38.816Z,17.98
2023-02-09T17:19:08.362Z,19.77
2023-02-09T17:21:35.627Z,20.48
2023-02-09T17:24:05.017Z,19.08
2023-02-09T17:26:32.115Z,18.55
2023-02-09T17:28:59.104Z,19.70
2023-02-09T17:31:27.677Z,20.02
2023-02-09T17:33:56.668Z,22.60
2023-02-09T17:36:28.621Z,21.63
2023-02-09T17:38:57.887Z,19.60
2023-02-09T17:41:31.141Z,18.23
2023-02-09T17:44:13.786Z,20.40
2023-02-09T17:46:46.594Z,22.02
2023-02-09T17:49:13.626Z,18.65
2023-02-09T17:51:41.776Z,22.60
2023-02-09T17:54:16.180Z,20.48
2023-02-09T17:56:43.254Z,22.02
2023-02-09T17:59:10.705Z,23.33
2023-02-09T18:01:42.534Z,24.30
2023-02-09T18:04:15.842Z,27.05
2023-02-09T18:06:42.849Z,28.10
2023-02-09T18:09:12.163Z,24.52
2023-02-09T18:11:42.189Z,24.92
2023-02-09T18:14:12.398Z,25.38
2023-02-09T18:16:41.126Z,27.00
2023-02-09T18:19:08.281Z,26.95
2023-02-09T18:21:35.342Z,28.13
2023-02-09T18:24:02.526Z,29.95
2023-02-09T18:26:29.562Z,29.30
2023-02-09T18:28:56.580Z,28.15
2023-02-09T18:31:23.676Z,27.83
2023-02-09T18:33:50.813Z,28.40
2023-02-09T18:36:17.880Z,28.23
2023-02-09T18:38:46.341Z,28.70
2023-02-09T18:41:13.761Z,27.98
2023-02-09T18:43:40.850Z,28.55
2023-02-09T18:46:07.962Z,26.75
2023-02-09T18:48:35.011Z,28.98
2023-02-09T18:51:02.026Z,28.00
2023-02-09T18:53:29.038Z,28.48
2023-02-09T18:55:56.033Z,30.50
2023-02-09T18:58:23.150Z,29.40
2023-02-09T19:00:50.252Z,28.52
2023-02-09T19:03:19.972Z,27.85
2023-02-09T19:05:47.985Z,30.52
2023-02-09T19:08:15.725Z,26.98
2023-02-09T19:10:43.601Z,27.98
2023-02-09T19:13:10.892Z,29.10
2023-02-09T19:15:38.975Z,32.00
2023-02-09T19:18:06.153Z,29.67
2023-02-09T19:20:34.218Z,30.90
2023-02-09T19:23:02.448Z,28.33
2023-02-09T19:25:29.962Z,29.27
2023-02-09T19:27:57.396Z,31.27
2023-02-09T19:30:26.276Z,28.92
2023-02-09T19:32:54.394Z,29.42
2023-02-09T19:35:22.763Z,29.77
2023-02-09T19:37:53.434Z,31.45
2023-02-09T19:40:41.107Z,32.63
2023-02-09T19:43:08.122Z,33.92
2023-02-09T19:45:37.973Z,35.35
2023-02-09T19:48:06.175Z,35.42
2023-02-09T19:50:33.666Z,35.90
2023-02-09T19:53:00.705Z,32.15
2023-02-09T19:55:27.720Z,36.55
2023-02-09T19:57:54.808Z,39.80
2023-02-09T20:00:22.212Z,35.33
2023-02-09T20:02:49.567Z,40.55
2023-02-09T20:05:17.052Z,36.53
2023-02-09T20:07:44.215Z,37.33
2023-02-09T20:10:11.463Z,36.25
2023-02-09T20:12:38.443Z,39.80
2023-02-09T20:15:05.579Z,43.50
2023-02-09T20:17:32.713Z,40.60
2023-02-09T20:19:59.735Z,41.95
2023-02-09T20:22:26.837Z,40.50
2023-02-09T20:24:53.954Z,38.50
2023-02-09T20:27:21.243Z,41.50
2023-02-09T20:29:48.238Z,39.22
2023-02-09T20:32:15.295Z,40.17
2023-02-09T20:34:42.540Z,41.10
2023-02-09T20:37:10.368Z,41.05
2023-02-09T20:39:37.380Z,39.30
2023-02-09T20:42:22.976Z,39.47
2023-02-09T20:45:08.894Z,37.60
2023-02-09T20:47:35.924Z,36.97
2023-02-09T20:50:03.120Z,40.38
2023-02-09T20:52:30.806Z,39.20
2023-02-09T20:54:58.174Z,40.35
2023-02-09T20:57:29.377Z,39.22
2023-02-09T21:00:00.258Z,38.70
2023-02-09T21:02:27.634Z,37.83
2023-02-09T21:04:55.997Z,35.88
2023-02-09T21:07:25.004Z,35.55
2023-02-09T21:09:53.983Z,35.47
2023-02-09T21:12:21.120Z,35.47
2023-02-09T21:14:50.546Z,37.00
2023-02-09T21:17:18.462Z,36.47
2023-02-09T21:19:45.463Z,36.58
2023-02-09T21:22:14.171Z,35.40
2023-02-09T21:24:41.705Z,39.28
2023-02-09T21:27:08.874Z,35.67
2023-02-09T21:29:36.421Z,36.63
2023-02-09T21:32:05.565Z,35.50
2023-02-09T21:34:32.974Z,37.33
2023-02-09T21:37:00.006Z,37.22
2023-02-09T21:39:27.077Z,37.35
2023-02-09T21:42:12.752Z,37.00
2023-02-09T21:44:39.768Z,35.10
2023-02-09T21:47:06.985Z,36.05
2023-02-09T21:49:34.273Z,34.90
2023-02-09T21:52:01.378Z,32.92
2023-02-09T21:54:33.092Z,32.25
2023-02-09T21:57:00.777Z,31.25
2023-02-09T21:59:27.982Z,33.95
2023-02-09T22:01:55.023Z,34.13
2023-02-09T22:04:22.084Z,29.75
2023-02-09T22:06:49.238Z,33.60
2023-02-09T22:09:16.625Z,32.15
2023-02-09T22:11:43.662Z,30.73
2023-02-09T22:14:10.743Z,32.63
2023-02-09T22:16:37.818Z,31.85
2023-02-09T22:19:04.867Z,29.20
2023-02-09T22:21:31.897Z,31.23
2023-02-09T22:23:58.909Z,32.10
2023-02-09T22:26:25.935Z,33.28
2023-02-09T22:28:52.978Z,29.55
2023-02-09T22:31:20.902Z,29.85
2023-02-09T22:33:48.462Z,28.58
2023-02-09T22:36:20.302Z,29.92
2023-02-09T22:38:47.352Z,29.27
2023-02-09T22:41:21.988Z,29.27
2023-02-09T22:43:53.767Z,27.73
2023-02-09T22:46:22.300Z,28.40
2023-02-09T22:48:53.551Z,26.33
2023-02-09T22:51:21.042Z,26.90
2023-02-09T22:53:48.059Z,25.90
2023-02-09T22:56:15.072Z,27.85
2023-02-09T22:58:42.197Z,26.63
2023-02-09T23:01:09.943Z,29.05
2023-02-09T23:03:37.506Z,28.27
2023-02-09T23:06:06.016Z,26.52
2023-02-09T23:08:33.173Z,25.58
2023-02-09T23:11:04.174Z,25.73
2023-02-09T23:13:34.800Z,25.40
2023-02-09T23:16:15.047Z,24.60
2023-02-09T23:18:46.681Z,26.50
2023-02-09T23:21:13.761Z,25.55
2023-02-09T23:23:40.797Z,25.55
2023-02-09T23:26:07.898Z,24.88
2023-02-09T23:28:35.068Z,26.20
2023-02-09T23:31:05.918Z,23.55
2023-02-09T23:33:33.689Z,23.65
2023-02-09T23:36:03.739Z,22.48
2023-02-09T23:38:30.950Z,22.75
2023-02-09T23:40:58.009Z,20.98
2023-02-09T23:43:25.928Z,22.70
2023-02-09T23:45:53.439Z,25.33
2023-02-09T23:48:20.609Z,23.40
2023-02-09T23:50:47.724Z,26.02
2023-02-09T23:53:14.814Z,27.02
2023-02-09T23:55:42.111Z,25.70
2023-02-09T23:58:09.218Z,25.40
